sensor_id;sensor_type;location;lat;lon;timestamp;pressure;altitude;pressure_sealevel;temperature;humidity
11053;BME280;55230;42.602;23.470;2022-09-29T00:00:40;92638.97;;;15.70;83.09
11053;BME280;55230;42.602;23.470;2022-09-29T00:03:07;92716.44;;;16.04;83.84
11053;BME280;55230;42.602;23.470;2022-09-29T00:05:34;92702.44;;;15.72;86.86
11053;BME280;55230;42.602;23.470;2022-09-29T00:08:01;92469.91;;;14.07;88.03
11053;BME280;55230;42.602;23.470;2022-09-29T00:10:28;92566.81;;;14.73;88.19
11053;BME280;55230;42.602;23.470;2022-09-29T00:12:56;92221.50;;;11.83;89.95
11053;BME280;55230;42.602;23.470;2022-09-29T00:15:22;92714.38;;;15.53;90.61
11053;BME280;55230;42.602;23.470;2022-09-29T00:17:49;92691.41;;;15.43;90.80
11053;BME280;55230;42.602;23.470;2022-09-29T00:20:16;92685.00;;;15.24;91.26
11053;BME280;55230;42.602;23.470;2022-09-29T00:22:43;92700.25;;;15.38;91.24
11053;BME280;55230;42.602;23.470;2022-09-29T00:25:09;92647.97;;;14.71;91.42
11053;BME280;55230;42.602;23.470;2022-09-29T00:27:36;92456.06;;;13.50;92.74
11053;BME280;55230;42.602;23.470;2022-09-29T00:30:06;92018.84;;;10.75;91.57
11053;BME280;55230;42.602;23.470;2022-09-29T00:32:32;92590.72;;;14.74;90.35
11053;BME280;55230;42.602;23.470;2022-09-29T00:34:59;92603.81;;;14.87;89.69
11053;BME280;55230;42.602;23.470;2022-09-29T00:37:26;92355.38;;;13.29;89.39
11053;BME280;55230;42.602;23.470;2022-09-29T00:39:53;92681.00;;;15.47;89.68
11053;BME280;55230;42.602;23.470;2022-09-29T00:42:20;92626.25;;;14.65;89.33
11053;BME280;55230;42.602;23.470;2022-09-29T00:45:13;92679.56;;;15.18;92.38
11053;BME280;55230;42.602;23.470;2022-09-29T00:47:44;92640.34;;;14.80;93.59
11053;BME280;55230;42.602;23.470;2022-09-29T00:50:17;92674.88;;;15.07;93.88
11053;BME280;55230;42.602;23.470;2022-09-29T00:52:49;92319.44;;;12.31;93.24
11053;BME280;55230;42.602;23.470;2022-09-29T00:55:20;92676.59;;;14.88;94.94
11053;BME280;55230;42.602;23.470;2022-09-29T00:57:52;92608.97;;;14.35;94.63
11053;BME280;55230;42.602;23.470;2022-09-29T01:00:21;92678.78;;;14.79;95.31
11053;BME280;55230;42.602;23.470;2022-09-29T01:02:50;92679.56;;;14.68;96.05
11053;BME280;55230;42.602;23.470;2022-09-29T01:05:20;92668.44;;;14.55;97.77
11053;BME280;55230;42.602;23.470;2022-09-29T01:07:49;92675.56;;;14.58;97.92
11053;BME280;55230;42.602;23.470;2022-09-29T01:10:17;92676.06;;;14.57;98.03
11053;BME280;55230;42.602;23.470;2022-09-29T01:12:45;92669.19;;;14.61;97.58
11053;BME280;55230;42.602;23.470;2022-09-29T01:15:15;92672.13;;;14.63;97.77
11053;BME280;55230;42.602;23.470;2022-09-29T01:17:45;92628.63;;;14.14;96.00
11053;BME280;55230;42.602;23.470;2022-09-29T01:20:15;92632.41;;;14.55;95.42
11053;BME280;55230;42.602;23.470;2022-09-29T01:26:28;92593.19;;;14.28;94.77
11053;BME280;55230;42.602;23.470;2022-09-29T01:29:30;92665.22;;;14.84;94.23
11053;BME280;55230;42.602;23.470;2022-09-29T01:32:11;92556.41;;;14.11;93.76
11053;BME280;55230;42.602;23.470;2022-09-29T01:34:46;92665.75;;;14.88;94.34
11053;BME280;55230;42.602;23.470;2022-09-29T01:37:22;92664.50;;;14.89;94.36
11053;BME280;55230;42.602;23.470;2022-09-29T01:39:58;92669.69;;;14.87;94.51
11053;BME280;55230;42.602;23.470;2022-09-29T01:42:33;92672.88;;;14.86;95.03
11053;BME280;55230;42.602;23.470;2022-09-29T01:45:05;92638.81;;;14.52;95.41
11053;BME280;55230;42.602;23.470;2022-09-29T01:47:40;92677.31;;;14.67;95.47
11053;BME280;55230;42.602;23.470;2022-09-29T01:50:12;92627.09;;;13.96;96.14
11053;BME280;55230;42.602;23.470;2022-09-29T01:52:43;92693.97;;;14.21;98.17
11053;BME280;55230;42.602;23.470;2022-09-29T01:55:14;92708.59;;;14.40;98.39
11053;BME280;55230;42.602;23.470;2022-09-29T01:57:46;92704.16;;;14.37;98.43
11053;BME280;55230;42.602;23.470;2022-09-29T02:00:17;92213.97;;;10.83;98.55
11053;BME280;55230;42.602;23.470;2022-09-29T02:02:49;92713.22;;;14.23;99.44
11053;BME280;55230;42.602;23.470;2022-09-29T02:05:20;92687.81;;;14.21;100.00
11053;BME280;55230;42.602;23.470;2022-09-29T02:07:48;92556.91;;;13.23;100.00
11053;BME280;55230;42.602;23.470;2022-09-29T02:10:19;92648.31;;;13.39;100.00
11053;BME280;55230;42.602;23.470;2022-09-29T02:12:49;92640.41;;;13.35;100.00
11053;BME280;55230;42.602;23.470;2022-09-29T02:15:20;92704.19;;;13.89;100.00
11053;BME280;55230;42.602;23.470;2022-09-29T02:17:53;92722.94;;;13.93;100.00
11053;BME280;55230;42.602;23.470;2022-09-29T02:20:21;92697.53;;;13.85;100.00
11053;BME280;55230;42.602;23.470;2022-09-29T02:22:48;92606.09;;;13.16;100.00
11053;BME280;55230;42.602;23.470;2022-09-29T02:25:16;92703.41;;;13.78;100.00
11053;BME280;55230;42.602;23.470;2022-09-29T02:27:46;92705.34;;;13.66;100.00
11053;BME280;55230;42.602;23.470;2022-09-29T02:30:13;92595.69;;;12.72;100.00
11053;BME280;55230;42.602;23.470;2022-09-29T02:32:39;92704.06;;;13.62;100.00
11053;BME280;55230;42.602;23.470;2022-09-29T02:35:10;92645.94;;;13.10;100.00
11053;BME280;55230;42.602;23.470;2022-09-29T02:37:51;92688.13;;;13.33;100.00
11053;BME280;55230;42.602;23.470;2022-09-29T02:40:40;92709.34;;;13.40;100.00
11053;BME280;55230;42.602;23.470;2022-09-29T02:43:26;92726.31;;;13.35;100.00
11053;BME280;55230;42.602;23.470;2022-09-29T02:46:09;92548.81;;;12.18;100.00
11053;BME280;55230;42.602;23.470;2022-09-29T02:48:58;92656.44;;;13.02;100.00
11053;BME280;55230;42.602;23.470;2022-09-29T02:51:33;92549.69;;;12.30;100.00
11053;BME280;55230;42.602;23.470;2022-09-29T02:54:12;92659.91;;;13.03;100.00
11053;BME280;55230;42.602;23.470;2022-09-29T02:56:48;92657.34;;;12.94;100.00
11053;BME280;55230;42.602;23.470;2022-09-29T02:59:20;92631.75;;;12.95;100.00
11053;BME280;55230;42.602;23.470;2022-09-29T03:01:54;92290.97;;;10.12;100.00
11053;BME280;55230;42.602;23.470;2022-09-29T03:04:24;92729.47;;;13.28;100.00
11053;BME280;55230;42.602;23.470;2022-09-29T03:06:53;92659.63;;;12.69;100.00
11053;BME280;55230;42.602;23.470;2022-09-29T03:09:20;92725.06;;;13.36;100.00
11053;BME280;55230;42.602;23.470;2022-09-29T03:11:47;92719.44;;;13.34;100.00
11053;BME280;55230;42.602;23.470;2022-09-29T03:14:13;92717.75;;;13.42;100.00
11053;BME280;55230;42.602;23.470;2022-09-29T03:16:40;92716.44;;;13.32;100.00
11053;BME280;55230;42.602;23.470;2022-09-29T03:19:08;92219.66;;;9.48;100.00
11053;BME280;55230;42.602;23.470;2022-09-29T03:21:34;92532.22;;;12.00;100.00
11053;BME280;55230;42.602;23.470;2022-09-29T03:24:03;92631.16;;;12.79;100.00
11053;BME280;55230;42.602;23.470;2022-09-29T03:26:30;92697.00;;;13.33;100.00
11053;BME280;55230;42.602;23.470;2022-09-29T03:28:57;92262.78;;;10.33;100.00
11053;BME280;55230;42.602;23.470;2022-09-29T03:31:24;92688.66;;;13.37;100.00
11053;BME280;55230;42.602;23.470;2022-09-29T03:33:51;92636.47;;;13.00;100.00
11053;BME280;55230;42.602;23.470;2022-09-29T03:36:18;92709.41;;;13.45;100.00
11053;BME280;55230;42.602;23.470;2022-09-29T03:38:44;92601.50;;;12.91;100.00
11053;BME280;55230;42.602;23.470;2022-09-29T03:41:13;92700.41;;;13.65;100.00
11053;BME280;55230;42.602;23.470;2022-09-29T03:43:40;92597.47;;;12.80;100.00
11053;BME280;55230;42.602;23.470;2022-09-29T03:46:06;92305.34;;;11.01;100.00
11053;BME280;55230;42.602;23.470;2022-09-29T03:48:33;92630.13;;;13.03;100.00
11053;BME280;55230;42.602;23.470;2022-09-29T03:51:00;92594.84;;;12.92;100.00
11053;BME280;55230;42.602;23.470;2022-09-29T03:53:32;92722.66;;;13.80;100.00
11053;BME280;55230;42.602;23.470;2022-09-29T03:55:59;92721.91;;;13.79;100.00
11053;BME280;55230;42.602;23.470;2022-09-29T03:58:27;92724.63;;;13.85;100.00
11053;BME280;55230;42.602;23.470;2022-09-29T04:00:54;92725.88;;;13.89;100.00
11053;BME280;55230;42.602;23.470;2022-09-29T04:03:21;92757.69;;;13.89;100.00
11053;BME280;55230;42.602;23.470;2022-09-29T04:05:48;92236.47;;;10.48;100.00
11053;BME280;55230;42.602;23.470;2022-09-29T04:08:15;92143.19;;;9.54;100.00
11053;BME280;55230;42.602;23.470;2022-09-29T04:10:42;92714.09;;;13.93;100.00
11053;BME280;55230;42.602;23.470;2022-09-29T04:13:11;92724.19;;;13.92;100.00
11053;BME280;55230;42.602;23.470;2022-09-29T04:15:39;92710.31;;;13.79;100.00
11053;BME280;55230;42.602;23.470;2022-09-29T04:18:06;92086.56;;;9.43;100.00
11053;BME280;55230;42.602;23.470;2022-09-29T04:20:32;92712.84;;;13.93;100.00
11053;BME280;55230;42.602;23.470;2022-09-29T04:22:59;92584.38;;;13.05;100.00
11053;BME280;55230;42.602;23.470;2022-09-29T04:25:26;92687.91;;;13.84;100.00
11053;BME280;55230;42.602;23.470;2022-09-29T04:27:53;92647.22;;;13.67;100.00
11053;BME280;55230;42.602;23.470;2022-09-29T04:30:20;92717.94;;;14.28;95.69
11053;BME280;55230;42.602;23.470;2022-09-29T04:32:48;92714.31;;;13.89;100.00
11053;BME280;55230;42.602;23.470;2022-09-29T04:35:15;92715.66;;;13.62;100.00
11053;BME280;55230;42.602;23.470;2022-09-29T04:37:41;92714.81;;;13.45;100.00
11053;BME280;55230;42.602;23.470;2022-09-29T04:40:08;92704.59;;;12.98;100.00
11053;BME280;55230;42.602;23.470;2022-09-29T04:42:36;92721.97;;;12.35;100.00
11053;BME280;55230;42.602;23.470;2022-09-29T04:45:03;92525.69;;;10.75;100.00
11053;BME280;55230;42.602;23.470;2022-09-29T04:47:30;92581.25;;;11.27;100.00
11053;BME280;55230;42.602;23.470;2022-09-29T04:49:58;92741.94;;;12.17;100.00
11053;BME280;55230;42.602;23.470;2022-09-29T04:52:25;92627.16;;;11.47;100.00
11053;BME280;55230;42.602;23.470;2022-09-29T04:54:51;92716.34;;;12.13;100.00
11053;BME280;55230;42.602;23.470;2022-09-29T04:57:18;92263.19;;;8.97;100.00
11053;BME280;55230;42.602;23.470;2022-09-29T04:59:45;92709.31;;;12.21;100.00
11053;BME280;55230;42.602;23.470;2022-09-29T05:02:12;92693.16;;;12.06;100.00
11053;BME280;55230;42.602;23.470;2022-09-29T05:04:38;92715.56;;;12.32;100.00
11053;BME280;55230;42.602;23.470;2022-09-29T05:07:06;92471.75;;;10.95;100.00
11053;BME280;55230;42.602;23.470;2022-09-29T05:09:33;92674.16;;;12.46;100.00
11053;BME280;55230;42.602;23.470;2022-09-29T05:12:01;92713.13;;;13.11;100.00
11053;BME280;55230;42.602;23.470;2022-09-29T05:14:27;92718.94;;;13.41;100.00
11053;BME280;55230;42.602;23.470;2022-09-29T05:16:54;92701.91;;;13.71;100.00
11053;BME280;55230;42.602;23.470;2022-09-29T05:19:21;92707.66;;;13.90;100.00
11053;BME280;55230;42.602;23.470;2022-09-29T05:21:48;92726.25;;;14.19;100.00
11053;BME280;55230;42.602;23.470;2022-09-29T05:24:16;92714.78;;;14.41;100.00
11053;BME280;55230;42.602;23.470;2022-09-29T05:26:43;92702.25;;;14.76;89.62
11053;BME280;55230;42.602;23.470;2022-09-29T05:29:10;92718.03;;;15.22;87.58
11053;BME280;55230;42.602;23.470;2022-09-29T05:31:37;92714.81;;;15.62;82.12
11053;BME280;55230;42.602;23.470;2022-09-29T05:34:04;92534.72;;;14.82;77.78
11053;BME280;55230;42.602;23.470;2022-09-29T05:36:30;92718.47;;;16.55;74.50
11053;BME280;55230;42.602;23.470;2022-09-29T05:38:57;92723.69;;;16.94;69.82
11053;BME280;55230;42.602;23.470;2022-09-29T05:41:25;92713.38;;;17.16;71.55
11053;BME280;55230;42.602;23.470;2022-09-29T05:43:53;92670.09;;;17.07;71.13
11053;BME280;55230;42.602;23.470;2022-09-29T05:46:21;92739.84;;;17.57;66.46
11053;BME280;55230;42.602;23.470;2022-09-29T05:48:49;92663.09;;;17.42;66.27
11053;BME280;55230;42.602;23.470;2022-09-29T05:51:18;92722.56;;;17.97;66.82
11053;BME280;55230;42.602;23.470;2022-09-29T05:53:46;92725.84;;;18.14;61.26
11053;BME280;55230;42.602;23.470;2022-09-29T05:56:14;92713.66;;;18.39;61.26
11053;BME280;55230;42.602;23.470;2022-09-29T05:58:42;92715.44;;;18.55;61.10
11053;BME280;55230;42.602;23.470;2022-09-29T06:01:11;92654.47;;;18.28;60.48
11053;BME280;55230;42.602;23.470;2022-09-29T06:03:40;92708.22;;;18.76;58.37
11053;BME280;55230;42.602;23.470;2022-09-29T06:06:09;92436.63;;;16.60;58.37
11053;BME280;55230;42.602;23.470;2022-09-29T06:08:36;92669.25;;;18.76;57.58
11053;BME280;55230;42.602;23.470;2022-09-29T06:11:06;92702.94;;;19.15;56.68
11053;BME280;55230;42.602;23.470;2022-09-29T06:13:33;92660.94;;;18.50;66.14
11053;BME280;55230;42.602;23.470;2022-09-29T06:16:01;92793.97;;;18.49;72.38
11053;BME280;55230;42.602;23.470;2022-09-29T06:18:28;92654.09;;;17.76;71.76
11053;BME280;55230;42.602;23.470;2022-09-29T06:20:59;92548.94;;;17.38;67.19
11053;BME280;55230;42.602;23.470;2022-09-29T06:23:26;92752.88;;;18.97;63.82
11053;BME280;55230;42.602;23.470;2022-09-29T06:25:55;92739.63;;;19.20;59.74
11053;BME280;55230;42.602;23.470;2022-09-29T06:28:22;92739.50;;;19.12;59.99
11053;BME280;55230;42.602;23.470;2022-09-29T06:30:49;92756.00;;;19.07;63.72
11053;BME280;55230;42.602;23.470;2022-09-29T06:33:17;92627.22;;;17.13;73.81
11053;BME280;55230;42.602;23.470;2022-09-29T06:35:46;92754.31;;;17.41;77.02
11053;BME280;55230;42.602;23.470;2022-09-29T06:38:30;92773.38;;;17.05;80.00
11053;BME280;55230;42.602;23.470;2022-09-29T06:40:57;92771.63;;;17.08;80.55
11053;BME280;55230;42.602;23.470;2022-09-29T06:43:24;92764.41;;;17.10;80.82
11053;BME280;55230;42.602;23.470;2022-09-29T06:45:50;92756.38;;;17.29;79.43
11053;BME280;55230;42.602;23.470;2022-09-29T06:48:19;92744.16;;;17.41;78.18
11053;BME280;55230;42.602;23.470;2022-09-29T06:50:45;92769.25;;;17.64;78.37
11053;BME280;55230;42.602;23.470;2022-09-29T06:53:12;92746.44;;;17.31;69.30
11053;BME280;55230;42.602;23.470;2022-09-29T06:55:39;92736.66;;;18.01;65.16
11053;BME280;55230;42.602;23.470;2022-09-29T06:58:06;92776.13;;;18.85;64.15
11053;BME280;55230;42.602;23.470;2022-09-29T07:00:34;92779.84;;;18.45;72.78
11053;BME280;55230;42.602;23.470;2022-09-29T07:03:00;92692.81;;;17.15;76.97
11053;BME280;55230;42.602;23.470;2022-09-29T07:05:29;92822.59;;;18.13;75.44
11053;BME280;55230;42.602;23.470;2022-09-29T07:07:55;92775.25;;;18.10;75.72
11053;BME280;55230;42.602;23.470;2022-09-29T07:10:23;92742.56;;;18.29;75.25
11053;BME280;55230;42.602;23.470;2022-09-29T07:12:49;92782.34;;;18.86;71.48
11053;BME280;55230;42.602;23.470;2022-09-29T07:15:17;92794.00;;;19.23;70.69
11053;BME280;55230;42.602;23.470;2022-09-29T07:17:43;92788.53;;;18.86;71.58
11053;BME280;55230;42.602;23.470;2022-09-29T07:20:10;92510.34;;;16.27;72.21
11053;BME280;55230;42.602;23.470;2022-09-29T07:22:38;92805.22;;;18.40;73.47
11053;BME280;55230;42.602;23.470;2022-09-29T07:25:06;92791.13;;;18.60;71.77
11053;BME280;55230;42.602;23.470;2022-09-29T07:27:33;92783.34;;;18.64;71.61
11053;BME280;55230;42.602;23.470;2022-09-29T07:30:00;92541.19;;;16.99;70.90
11053;BME280;55230;42.602;23.470;2022-09-29T07:32:26;92792.50;;;18.48;72.35
11053;BME280;55230;42.602;23.470;2022-09-29T07:34:53;92787.75;;;18.49;74.23
11053;BME280;55230;42.602;23.470;2022-09-29T07:37:20;92706.72;;;17.42;74.53
11053;BME280;55230;42.602;23.470;2022-09-29T07:39:48;92795.97;;;17.95;76.73
11053;BME280;55230;42.602;23.470;2022-09-29T07:42:15;92787.66;;;18.11;75.09
11053;BME280;55230;42.602;23.470;2022-09-29T07:44:42;92716.69;;;17.33;75.04
11053;BME280;55230;42.602;23.470;2022-09-29T07:47:09;92789.16;;;18.31;75.65
11053;BME280;55230;42.602;23.470;2022-09-29T07:49:36;92779.41;;;18.84;74.70
11053;BME280;55230;42.602;23.470;2022-09-29T07:52:02;92792.22;;;19.07;74.35
11053;BME280;55230;42.602;23.470;2022-09-29T07:54:29;92799.63;;;19.12;69.88
11053;BME280;55230;42.602;23.470;2022-09-29T07:56:57;92538.31;;;16.86;71.02
11053;BME280;55230;42.602;23.470;2022-09-29T07:59:25;92795.63;;;18.95;72.07
11053;BME280;55230;42.602;23.470;2022-09-29T08:01:52;92800.66;;;19.09;71.41
11053;BME280;55230;42.602;23.470;2022-09-29T08:04:19;92745.69;;;19.31;69.62
11053;BME280;55230;42.602;23.470;2022-09-29T08:06:46;92578.31;;;18.62;68.09
11053;BME280;55230;42.602;23.470;2022-09-29T08:09:13;92807.63;;;20.37;65.80
11053;BME280;55230;42.602;23.470;2022-09-29T08:11:41;92302.50;;;17.33;64.90
11053;BME280;55230;42.602;23.470;2022-09-29T08:14:10;92830.81;;;21.01;63.21
11053;BME280;55230;42.602;23.470;2022-09-29T08:16:37;92755.53;;;20.76;61.66
11053;BME280;55230;42.602;23.470;2022-09-29T08:19:04;92813.78;;;21.16;62.43
11053;BME280;55230;42.602;23.470;2022-09-29T08:21:31;92812.66;;;21.11;62.18
11053;BME280;55230;42.602;23.470;2022-09-29T08:24:01;92812.97;;;21.21;61.00
11053;BME280;55230;42.602;23.470;2022-09-29T08:26:30;92818.50;;;21.41;63.71
11053;BME280;55230;42.602;23.470;2022-09-29T08:28:59;92778.31;;;20.84;65.23
11053;BME280;55230;42.602;23.470;2022-09-29T08:31:28;92762.34;;;20.36;64.74
11053;BME280;55230;42.602;23.470;2022-09-29T08:33:56;92817.22;;;20.83;64.63
11053;BME280;55230;42.602;23.470;2022-09-29T08:36:24;92817.72;;;21.07;64.21
11053;BME280;55230;42.602;23.470;2022-09-29T08:38:52;92824.84;;;21.23;62.14
11053;BME280;55230;42.602;23.470;2022-09-29T08:41:28;92790.72;;;21.11;61.59
11053;BME280;55230;42.602;23.470;2022-09-29T08:44:02;92836.91;;;21.88;59.91
11053;BME280;55230;42.602;23.470;2022-09-29T08:46:34;92755.34;;;21.96;59.56
11053;BME280;55230;42.602;23.470;2022-09-29T08:49:09;92822.41;;;22.77;59.39
11053;BME280;55230;42.602;23.470;2022-09-29T08:51:41;92815.44;;;22.48;56.20
11053;BME280;55230;42.602;23.470;2022-09-29T08:54:19;92833.22;;;21.85;60.79
11053;BME280;55230;42.602;23.470;2022-09-29T08:56:48;92832.56;;;21.58;61.28
11053;BME280;55230;42.602;23.470;2022-09-29T08:59:14;92589.88;;;19.84;60.35
11053;BME280;55230;42.602;23.470;2022-09-29T09:01:51;92831.13;;;21.78;60.05
11053;BME280;55230;42.602;23.470;2022-09-29T09:04:50;92762.06;;;20.99;63.85
11053;BME280;55230;42.602;23.470;2022-09-29T09:07:29;92850.25;;;21.70;61.90
11053;BME280;55230;42.602;23.470;2022-09-29T09:10:12;92818.28;;;21.39;60.62
11053;BME280;55230;42.602;23.470;2022-09-29T09:13:11;92838.78;;;21.25;59.97
11053;BME280;55230;42.602;23.470;2022-09-29T09:16:08;92828.34;;;21.11;59.56
11053;BME280;55230;42.602;23.470;2022-09-29T09:18:55;92831.84;;;21.24;57.44
11053;BME280;55230;42.602;23.470;2022-09-29T09:21:30;92836.38;;;21.55;57.69
11053;BME280;55230;42.602;23.470;2022-09-29T09:24:07;92825.72;;;21.86;49.36
11053;BME280;55230;42.602;23.470;2022-09-29T09:26:42;92512.53;;;20.30;48.57
11053;BME280;55230;42.602;23.470;2022-09-29T09:29:15;92800.59;;;22.51;45.58
11053;BME280;55230;42.602;23.470;2022-09-29T09:31:45;92776.56;;;22.44;47.37
11053;BME280;55230;42.602;23.470;2022-09-29T09:34:21;92723.25;;;22.67;42.43
11053;BME280;55230;42.602;23.470;2022-09-29T09:36:54;92706.25;;;22.48;42.51
11053;BME280;55230;42.602;23.470;2022-09-29T09:39:26;92795.25;;;23.09;44.19
11053;BME280;55230;42.602;23.470;2022-09-29T09:41:56;92812.72;;;23.70;43.45
11053;BME280;55230;42.602;23.470;2022-09-29T09:44:30;92762.25;;;23.75;43.34
11053;BME280;55230;42.602;23.470;2022-09-29T09:47:01;92823.81;;;24.53;44.30
11053;BME280;55230;42.602;23.470;2022-09-29T09:49:36;92837.41;;;24.28;42.42
11053;BME280;55230;42.602;23.470;2022-09-29T09:52:10;92787.81;;;24.28;41.78
11053;BME280;55230;42.602;23.470;2022-09-29T09:54:42;92889.25;;;24.52;39.70
11053;BME280;55230;42.602;23.470;2022-09-29T09:57:37;92809.31;;;24.15;40.19
11053;BME280;55230;42.602;23.470;2022-09-29T10:00:09;92817.22;;;24.48;39.41
11053;BME280;55230;42.602;23.470;2022-09-29T10:02:42;92483.16;;;22.50;39.18
11053;BME280;55230;42.602;23.470;2022-09-29T10:05:13;92834.28;;;24.54;41.02
11053;BME280;55230;42.602;23.470;2022-09-29T10:07:40;92824.94;;;24.05;41.94
11053;BME280;55230;42.602;23.470;2022-09-29T10:10:15;92839.56;;;23.84;43.29
11053;BME280;55230;42.602;23.470;2022-09-29T10:12:42;92834.84;;;24.53;38.85
11053;BME280;55230;42.602;23.470;2022-09-29T10:15:18;92818.50;;;24.40;39.68
11053;BME280;55230;42.602;23.470;2022-09-29T10:17:51;92824.56;;;24.23;40.78
11053;BME280;55230;42.602;23.470;2022-09-29T10:20:32;92761.22;;;24.16;39.62
11053;BME280;55230;42.602;23.470;2022-09-29T10:23:27;92817.88;;;23.88;40.25
11053;BME280;55230;42.602;23.470;2022-09-29T10:25:58;92823.03;;;23.84;41.24
11053;BME280;55230;42.602;23.470;2022-09-29T10:28:29;92616.25;;;22.77;40.86
11053;BME280;55230;42.602;23.470;2022-09-29T10:31:15;92813.53;;;24.61;40.28
11053;BME280;55230;42.602;23.470;2022-09-29T10:33:47;92811.69;;;24.63;41.43
11053;BME280;55230;42.602;23.470;2022-09-29T10:36:15;92494.97;;;21.71;41.04
11053;BME280;55230;42.602;23.470;2022-09-29T10:38:45;92786.28;;;23.52;40.98
11053;BME280;55230;42.602;23.470;2022-09-29T10:41:12;92622.00;;;21.79;42.10
11053;BME280;55230;42.602;23.470;2022-09-29T10:43:41;92829.41;;;23.64;41.70
11053;BME280;55230;42.602;23.470;2022-09-29T10:46:35;92338.31;;;19.99;41.70
11053;BME280;55230;42.602;23.470;2022-09-29T10:49:08;92474.09;;;21.68;42.18
11053;BME280;55230;42.602;23.470;2022-09-29T10:51:38;92820.63;;;23.66;40.49
11053;BME280;55230;42.602;23.470;2022-09-29T10:54:07;92598.97;;;22.61;41.79
11053;BME280;55230;42.602;23.470;2022-09-29T10:56:34;92785.09;;;24.21;39.51
11053;BME280;55230;42.602;23.470;2022-09-29T10:59:02;92797.03;;;24.38;38.73
11053;BME280;55230;42.602;23.470;2022-09-29T11:01:31;92811.69;;;24.41;40.98
11053;BME280;55230;42.602;23.470;2022-09-29T11:04:00;92809.69;;;24.49;40.66
11053;BME280;55230;42.602;23.470;2022-09-29T11:06:30;92792.25;;;24.31;40.16
11053;BME280;55230;42.602;23.470;2022-09-29T11:09:00;92799.31;;;23.66;41.89
11053;BME280;55230;42.602;23.470;2022-09-29T11:11:28;92806.59;;;23.06;42.68
11053;BME280;55230;42.602;23.470;2022-09-29T11:13:56;92804.13;;;23.23;42.49
11053;BME280;55230;42.602;23.470;2022-09-29T11:16:29;92799.81;;;23.42;43.66
11053;BME280;55230;42.602;23.470;2022-09-29T11:19:01;92811.97;;;23.69;42.49
11053;BME280;55230;42.602;23.470;2022-09-29T11:27:59;92807.84;;;22.97;43.25
11053;BME280;55230;42.602;23.470;2022-09-29T11:30:41;92747.03;;;22.65;42.72
11053;BME280;55230;42.602;23.470;2022-09-29T11:33:20;92784.34;;;23.32;41.57
11053;BME280;55230;42.602;23.470;2022-09-29T11:35:54;92796.22;;;23.77;40.87
11053;BME280;55230;42.602;23.470;2022-09-29T11:38:47;92806.75;;;24.17;42.70
11053;BME280;55230;42.602;23.470;2022-09-29T11:41:31;92756.00;;;23.52;40.39
11053;BME280;55230;42.602;23.470;2022-09-29T11:44:09;92788.50;;;23.83;41.09
11053;BME280;55230;42.602;23.470;2022-09-29T11:46:51;92755.50;;;24.14;41.64
11053;BME280;55230;42.602;23.470;2022-09-29T11:49:34;92791.09;;;23.81;40.06
11053;BME280;55230;42.602;23.470;2022-09-29T11:52:17;92777.09;;;23.64;41.40
11053;BME280;55230;42.602;23.470;2022-09-29T11:54:59;92794.38;;;23.80;40.93
11053;BME280;55230;42.602;23.470;2022-09-29T11:57:41;92792.53;;;23.75;41.46
11053;BME280;55230;42.602;23.470;2022-09-29T12:00:13;92788.38;;;24.04;40.07
11053;BME280;55230;42.602;23.470;2022-09-29T12:02:55;92792.78;;;24.15;40.16
11053;BME280;55230;42.602;23.470;2022-09-29T12:05:33;92786.59;;;23.41;40.58
11053;BME280;55230;42.602;23.470;2022-09-29T12:08:14;92752.56;;;23.23;41.93
11053;BME280;55230;42.602;23.470;2022-09-29T12:10:50;92737.59;;;22.88;42.14
11053;BME280;55230;42.602;23.470;2022-09-29T12:13:30;92778.53;;;23.43;42.58
11053;BME280;55230;42.602;23.470;2022-09-29T12:16:08;92753.97;;;23.60;41.48
11053;BME280;55230;42.602;23.470;2022-09-29T12:18:39;92841.03;;;23.85;42.09
11053;BME280;55230;42.602;23.470;2022-09-29T12:21:09;92781.16;;;23.63;41.94
11053;BME280;55230;42.602;23.470;2022-09-29T12:23:38;92791.00;;;23.44;41.79
11053;BME280;55230;42.602;23.470;2022-09-29T12:26:08;92783.28;;;23.35;41.60
11053;BME280;55230;42.602;23.470;2022-09-29T12:28:41;92743.28;;;22.83;42.74
11053;BME280;55230;42.602;23.470;2022-09-29T12:31:12;92786.28;;;23.09;41.75
11053;BME280;55230;42.602;23.470;2022-09-29T12:33:45;92754.09;;;22.88;43.28
11053;BME280;55230;42.602;23.470;2022-09-29T12:36:23;92787.69;;;22.59;44.03
11053;BME280;55230;42.602;23.470;2022-09-29T12:39:28;92799.47;;;22.67;44.43
11053;BME280;55230;42.602;23.470;2022-09-29T12:42:05;92790.81;;;22.63;45.57
11053;BME280;55230;42.602;23.470;2022-09-29T12:44:42;92710.53;;;22.01;45.89
11053;BME280;55230;42.602;23.470;2022-09-29T12:47:17;92707.00;;;21.93;44.78
11053;BME280;55230;42.602;23.470;2022-09-29T12:49:57;92740.16;;;22.23;45.61
11053;BME280;55230;42.602;23.470;2022-09-29T12:52:32;92784.13;;;22.51;46.44
11053;BME280;55230;42.602;23.470;2022-09-29T12:55:06;92786.47;;;22.47;45.45
11053;BME280;55230;42.602;23.470;2022-09-29T12:57:38;92794.00;;;22.46;45.78
11053;BME280;55230;42.602;23.470;2022-09-29T13:00:11;92799.34;;;22.52;43.69
11053;BME280;55230;42.602;23.470;2022-09-29T13:02:57;92794.25;;;22.56;45.33
11053;BME280;55230;42.602;23.470;2022-09-29T13:11:49;92802.09;;;22.80;44.56
11053;BME280;55230;42.602;23.470;2022-09-29T13:14:53;92795.88;;;22.87;45.34
11053;BME280;55230;42.602;23.470;2022-09-29T13:17:33;92791.69;;;22.93;43.76
11053;BME280;55230;42.602;23.470;2022-09-29T13:20:33;92702.59;;;22.18;43.43
11053;BME280;55230;42.602;23.470;2022-09-29T13:23:37;92792.34;;;23.15;43.15
11053;BME280;55230;42.602;23.470;2022-09-29T13:26:21;92797.41;;;23.31;43.71